createdAt,value
2023-02-23T00:02:19.798Z,100046.64
2023-02-23T00:04:48.269Z,100045.48
2023-02-23T00:07:20.166Z,100043.91
2023-02-23T00:09:48.461Z,100045.52
2023-02-23T00:12:17.376Z,100047.02
2023-02-23T00:14:45.792Z,100045.45
2023-02-23T00:17:14.947Z,100044.79
2023-02-23T00:19:44.112Z,100044.60
2023-02-23T00:22:12.951Z,100046.82
2023-02-23T00:24:47.535Z,100050.50
2023-02-23T00:27:21.434Z,100050.20
2023-02-23T00:29:51.117Z,100051.83
2023-02-23T00:32:22.729Z,100055.52
2023-02-23T00:34:52.662Z,100058.73
2023-02-23T00:37:23.139Z,100062.09
2023-02-23T00:39:54.497Z,100061.95
2023-02-23T00:42:23.802Z,100064.06
2023-02-23T00:44:52.308Z,100067.52
2023-02-23T00:47:20.898Z,100071.97
2023-02-23T00:49:50.776Z,100073.96
2023-02-23T00:52:21.125Z,100075.95
2023-02-23T00:54:51.583Z,100077.44
2023-02-23T00:57:19.849Z,100079.33
2023-02-23T00:59:51.019Z,100081.07
2023-02-23T01:02:19.036Z,100086.23
2023-02-23T01:04:47.108Z,100088.20
2023-02-23T01:07:15.577Z,100090.52
2023-02-23T01:09:43.950Z,100091.75
2023-02-23T01:12:13.355Z,100089.18
2023-02-23T01:14:47.838Z,100095.67
2023-02-23T01:17:15.953Z,100100.07
2023-02-23T01:19:44.544Z,100101.25
2023-02-23T01:22:12.790Z,100106.29
2023-02-23T01:24:41.812Z,100106.48
2023-02-23T01:27:09.938Z,100114.77
2023-02-23T01:29:39.878Z,100111.72
2023-02-23T01:32:08.838Z,100114.23
2023-02-23T01:34:38.884Z,100116.90
2023-02-23T01:37:06.932Z,100118.80
2023-02-23T01:39:35.004Z,100121.56
2023-02-23T01:42:25.733Z,100126.48
2023-02-23T01:44:53.778Z,100123.05
2023-02-23T01:47:22.535Z,100126.67
2023-02-23T01:49:51.203Z,100129.47
2023-02-23T01:52:19.370Z,100131.52
2023-02-23T01:54:51.293Z,100130.87
2023-02-23T01:57:21.279Z,100132.38
2023-02-23T01:59:51.108Z,100135.02
2023-02-23T02:02:21.517Z,100137.50
2023-02-23T02:04:52.445Z,100139.70
2023-02-23T02:07:24.042Z,100143.73
2023-02-23T02:10:12.603Z,100149.33
2023-02-23T02:12:45.588Z,100147.55
2023-02-23T02:15:19.687Z,100151.65
2023-02-23T02:18:23.741Z,100153.21
2023-02-23T02:21:17.824Z,100156.95
2023-02-23T02:24:08.451Z,100157.66
2023-02-23T02:26:49.908Z,100161.68
2023-02-23T02:29:31.480Z,100162.41
2023-02-23T02:32:02.756Z,100164.64
2023-02-23T02:35:09.104Z,100165.62
2023-02-23T02:37:56.974Z,100174.48
2023-02-23T02:40:53.526Z,100175.71
2023-02-23T02:43:42.967Z,100181.67
2023-02-23T02:46:41.599Z,100183.06
2023-02-23T02:49:26.738Z,100184.41
2023-02-23T02:52:05.902Z,100184.64
2023-02-23T02:54:47.934Z,100189.50
2023-02-23T02:57:16.837Z,100185.45
2023-02-23T03:00:04.585Z,100187.93
2023-02-23T03:02:54.434Z,100190.86
2023-02-23T03:05:48.156Z,100193.38
2023-02-23T03:08:48.029Z,100196.52
2023-02-23T03:11:35.294Z,100195.91
2023-02-23T03:14:30.656Z,100192.21
2023-02-23T03:17:27.446Z,100193.61
2023-02-23T03:20:26.650Z,100197.96
2023-02-23T03:23:19.546Z,100202.18
2023-02-23T03:26:31.205Z,100210.41
2023-02-23T03:29:29.019Z,100211.74
2023-02-23T03:32:49.300Z,100212.17
2023-02-23T03:35:47.622Z,100210.22
2023-02-23T03:38:48.582Z,100212.86
2023-02-23T03:41:35.157Z,100213.67
2023-02-23T03:44:25.649Z,100216.77
2023-02-23T03:47:12.846Z,100223.53
2023-02-23T03:50:01.190Z,100225.02
2023-02-23T03:52:52.071Z,100229.36
2023-02-23T03:55:46.123Z,100230.54
2023-02-23T03:58:37.584Z,100227.32
2023-02-23T04:01:25.040Z,100229.09
2023-02-23T04:04:12.253Z,100230.88
2023-02-23T04:07:01.078Z,100234.13
2023-02-23T04:09:48.292Z,100236.51
2023-02-23T04:12:55.805Z,100235.80
2023-02-23T04:15:33.430Z,100235.56
2023-02-23T04:18:06.591Z,100235.53
2023-02-23T04:20:35.509Z,100236.05
2023-02-23T04:23:04.310Z,100238.38
2023-02-23T04:25:33.050Z,100242.05
2023-02-23T04:28:01.318Z,100246.27
2023-02-23T04:30:30.500Z,100245.77
2023-02-23T04:32:59.820Z,100252.27
2023-02-23T04:35:30.117Z,100251.02
2023-02-23T04:38:01.645Z,100250.94
2023-02-23T04:40:30.095Z,100258.52
2023-02-23T04:42:58.313Z,100255.98
2023-02-23T04:45:26.806Z,100259.64
2023-02-23T04:47:54.916Z,100266.34
2023-02-23T04:50:25.403Z,100264.81
2023-02-23T04:52:53.891Z,100269.06
2023-02-23T04:55:23.113Z,100271.49
2023-02-23T04:57:55.550Z,100271.91
2023-02-23T05:00:25.622Z,100273.23
2023-02-23T05:02:57.659Z,100276.97
2023-02-23T05:05:27.645Z,100280.35
2023-02-23T05:07:55.839Z,100280.41
2023-02-23T05:10:24.905Z,100286.64
2023-02-23T05:13:01.407Z,100290.76
2023-02-23T05:15:35.070Z,100290.22
2023-02-23T05:18:03.477Z,100293.34
2023-02-23T05:20:34.254Z,100298.30
2023-02-23T05:23:05.075Z,100294.00
2023-02-23T05:25:33.870Z,100299.73
2023-02-23T05:28:05.454Z,100305.38
2023-02-23T05:30:34.736Z,100310.41
2023-02-23T05:33:08.468Z,100313.21
2023-02-23T05:35:54.290Z,100317.88
2023-02-23T05:38:22.578Z,100324.40
2023-02-23T05:41:14.800Z,100326.86
2023-02-23T05:43:44.268Z,100328.48
2023-02-23T05:46:17.489Z,100332.42
2023-02-23T05:48:49.053Z,100335.80
2023-02-23T05:51:18.756Z,100338.30
2023-02-23T05:53:52.019Z,100341.77
2023-02-23T05:56:24.069Z,100348.98
2023-02-23T05:58:53.972Z,100351.39
2023-02-23T06:01:24.667Z,100353.00
2023-02-23T06:04:09.269Z,100359.82
2023-02-23T06:06:39.618Z,100365.52
2023-02-23T06:09:11.014Z,100369.39
2023-02-23T06:11:41.131Z,100370.32
2023-02-23T06:14:12.356Z,100373.96
2023-02-23T06:16:48.597Z,100377.48
2023-02-23T06:19:17.370Z,100376.92
2023-02-23T06:21:47.785Z,100376.85
2023-02-23T06:24:19.898Z,100375.94
2023-02-23T06:26:51.888Z,100379.13
2023-02-23T06:29:21.900Z,100382.20
2023-02-23T06:31:52.450Z,100379.61
2023-02-23T06:34:20.655Z,100384.94
2023-02-23T06:36:51.200Z,100386.80
2023-02-23T06:39:21.497Z,100389.15
2023-02-23T06:41:52.486Z,100389.13
2023-02-23T06:44:23.702Z,100391.63
2023-02-23T06:46:52.123Z,100388.81
2023-02-23T06:49:20.243Z,100391.23
2023-02-23T06:51:51.237Z,100396.14
2023-02-23T06:54:19.844Z,100401.08
2023-02-23T06:56:49.097Z,100398.33
2023-02-23T06:59:17.326Z,100400.71
2023-02-23T07:01:47.888Z,100403.71
2023-02-23T07:04:17.047Z,100401.58
2023-02-23T07:06:45.674Z,100398.40
2023-02-23T07:09:16.800Z,100393.95
2023-02-23T07:11:45.629Z,100390.06
2023-02-23T07:14:26.172Z,100387.33
2023-02-23T07:16:55.130Z,100381.79
2023-02-23T07:19:24.748Z,100379.94
2023-02-23T07:21:53.737Z,100377.86
2023-02-23T07:24:22.192Z,100375.93
2023-02-23T07:26:50.783Z,100376.06
2023-02-23T07:29:19.329Z,100379.16
2023-02-23T07:31:50.134Z,100384.27
2023-02-23T07:34:18.874Z,100385.95
2023-02-23T07:36:47.429Z,100389.52
2023-02-23T07:39:15.776Z,100394.38
2023-02-23T07:41:44.069Z,100398.29
2023-02-23T07:44:19.778Z,100401.77
2023-02-23T07:46:52.912Z,100406.01
2023-02-23T07:49:21.230Z,100405.86
2023-02-23T07:51:49.855Z,100409.64
2023-02-23T07:54:19.765Z,100412.44
2023-02-23T07:56:48.031Z,100412.13
2023-02-23T07:59:22.899Z,100411.28
2023-02-23T08:01:52.673Z,100411.75
2023-02-23T08:04:24.027Z,100411.94
2023-02-23T08:06:52.298Z,100413.65
2023-02-23T08:09:20.371Z,100417.23
2023-02-23T08:11:49.722Z,100418.41
2023-02-23T08:14:22.071Z,100417.77
2023-02-23T08:16:51.645Z,100421.06
2023-02-23T08:19:24.978Z,100421.85
2023-02-23T08:21:55.466Z,100424.10
2023-02-23T08:24:26.972Z,100422.96
2023-02-23T08:26:58.720Z,100426.19
2023-02-23T08:29:27.377Z,100426.14
2023-02-23T08:31:58.614Z,100424.69
2023-02-23T08:34:28.449Z,100424.81
2023-02-23T08:36:56.960Z,100426.86
2023-02-23T08:39:25.242Z,100427.77
2023-02-23T08:41:58.216Z,100423.70
2023-02-23T08:44:26.627Z,100423.67
2023-02-23T08:46:55.918Z,100423.73
2023-02-23T08:52:08.644Z,100426.25
2023-02-23T08:54:37.360Z,100425.64
2023-02-23T08:57:06.169Z,100424.58
2023-02-23T08:59:39.326Z,100425.39
2023-02-23T09:02:10.489Z,100426.20
2023-02-23T09:04:41.912Z,100427.10
2023-02-23T09:07:15.445Z,100431.95
2023-02-23T09:09:43.702Z,100434.27
2023-02-23T09:12:15.061Z,100438.52
2023-02-23T09:14:48.472Z,100438.08
2023-02-23T09:17:18.116Z,100434.95
2023-02-23T09:19:48.059Z,100431.01
2023-02-23T09:22:18.493Z,100431.02
2023-02-23T09:24:46.643Z,100432.74
2023-02-23T09:27:14.972Z,100434.28
2023-02-23T09:29:44.762Z,100434.19
2023-02-23T09:32:24.188Z,100432.85
2023-02-23T09:34:57.248Z,100435.89
2023-02-23T09:37:28.524Z,100438.80
2023-02-23T09:39:59.338Z,100435.27
2023-02-23T09:42:50.953Z,100438.47
2023-02-23T09:45:26.640Z,100441.54
2023-02-23T09:48:16.988Z,100441.30
2023-02-23T09:50:53.340Z,100441.34
2023-02-23T09:53:35.735Z,100439.21
2023-02-23T09:56:23.361Z,100435.88
2023-02-23T09:58:51.825Z,100434.80
2023-02-23T10:01:46.421Z,100428.28
2023-02-23T10:04:36.824Z,100423.73
2023-02-23T10:07:21.556Z,100418.91
2023-02-23T10:10:34.122Z,100417.64
2023-02-23T10:13:23.837Z,100421.27
2023-02-23T10:16:01.434Z,100420.35
2023-02-23T10:18:54.966Z,100420.13
2023-02-23T10:21:43.490Z,100415.23
2023-02-23T10:24:20.802Z,100414.64
2023-02-23T10:26:54.901Z,100408.71
2023-02-23T10:29:49.703Z,100406.50
2023-02-23T10:32:39.779Z,100409.30
2023-02-23T10:35:15.946Z,100408.44
2023-02-23T10:37:48.926Z,100406.85
2023-02-23T10:40:29.013Z,100406.80
2023-02-23T10:45:58.532Z,100406.90
2023-02-23T10:48:43.416Z,100402.33
2023-02-23T10:51:22.522Z,100406.12
2023-02-23T10:53:56.061Z,100402.13
2023-02-23T10:56:31.411Z,100402.92
2023-02-23T10:59:11.690Z,100401.32
2023-02-23T11:04:56.150Z,100395.68
2023-02-23T11:07:42.557Z,100397.69
2023-02-23T11:10:37.449Z,100394.16
2023-02-23T11:13:21.291Z,100391.41
2023-02-23T11:15:51.078Z,100390.43
2023-02-23T11:18:23.665Z,100396.87
2023-02-23T11:20:52.908Z,100397.73
2023-02-23T11:23:34.152Z,100394.94
2023-02-23T11:26:05.116Z,100392.93
2023-02-23T11:29:16.510Z,100398.10
2023-02-23T11:31:53.702Z,100399.99
2023-02-23T11:34:35.980Z,100396.69
2023-02-23T11:37:11.594Z,100393.44
2023-02-23T11:39:54.152Z,100388.73
2023-02-23T11:42:37.077Z,100390.63
2023-02-23T11:45:15.328Z,100390.38
2023-02-23T11:47:51.068Z,100392.39
2023-02-23T11:50:30.142Z,100394.36
2023-02-23T11:53:09.620Z,100395.17
2023-02-23T11:58:45.856Z,100391.03
2023-02-23T12:01:39.028Z,100391.10
2023-02-23T12:04:23.589Z,100389.82
2023-02-23T12:06:59.211Z,100392.85
2023-02-23T12:09:34.014Z,100391.93
2023-02-23T12:12:07.668Z,100385.83
2023-02-23T12:14:52.223Z,100387.14
2023-02-23T12:17:28.880Z,100382.90
2023-02-23T12:20:12.746Z,100379.92
2023-02-23T12:23:14.578Z,100379.09
2023-02-23T12:25:59.952Z,100375.09
2023-02-23T12:29:04.384Z,100367.05
2023-02-23T12:31:46.498Z,100366.37
2023-02-23T12:34:47.023Z,100363.77
2023-02-23T12:37:29.405Z,100366.04
2023-02-23T12:40:04.069Z,100363.06
2023-02-23T12:43:09.069Z,100362.18
2023-02-23T12:45:50.718Z,100359.62
2023-02-23T12:48:51.373Z,100356.23
2023-02-23T12:51:45.788Z,100352.90
2023-02-23T12:54:15.813Z,100350.42
2023-02-23T12:57:07.181Z,100347.41
2023-02-23T13:00:24.465Z,100342.89
2023-02-23T13:03:03.011Z,100339.09
2023-02-23T13:05:34.179Z,100333.45
2023-02-23T13:08:25.803Z,100333.52
2023-02-23T13:11:26.664Z,100330.13
2023-02-23T13:14:10.105Z,100325.77
2023-02-23T13:16:56.680Z,100322.84
2023-02-23T13:19:45.277Z,100322.00
2023-02-23T13:22:33.822Z,100313.92
2023-02-23T13:25:19.958Z,100309.64
2023-02-23T13:28:00.120Z,100307.89
2023-02-23T13:30:32.674Z,100306.33
2023-02-23T13:33:07.092Z,100304.81
2023-02-23T13:35:35.706Z,100298.35
2023-02-23T13:38:18.100Z,100300.65
2023-02-23T13:41:10.439Z,100300.14
2023-02-23T13:43:53.124Z,100296.33
2023-02-23T13:46:25.800Z,100298.77
2023-02-23T13:48:59.273Z,100297.59
2023-02-23T13:51:35.699Z,100298.81
2023-02-23T13:54:20.104Z,100295.02
2023-02-23T13:56:54.949Z,100293.58
2023-02-23T13:59:26.210Z,100294.93
2023-02-23T14:01:54.761Z,100293.02
2023-02-23T14:04:26.882Z,100293.38
2023-02-23T14:07:10.524Z,100287.17
2023-02-23T14:09:54.664Z,100284.59
2023-02-23T14:12:40.903Z,100281.84
2023-02-23T14:15:28.364Z,100281.68
2023-02-23T14:18:04.620Z,100284.27
2023-02-23T14:20:39.366Z,100283.02
2023-02-23T14:23:20.410Z,100286.29
2023-02-23T14:25:52.456Z,100285.80
2023-02-23T14:28:26.034Z,100284.40
2023-02-23T14:31:10.303Z,100283.66
2023-02-23T14:33:39.005Z,100282.40
2023-02-23T14:36:22.479Z,100276.17
2023-02-23T14:39:24.602Z,100280.46
2023-02-23T14:41:58.196Z,100282.70
2023-02-23T14:44:32.724Z,100280.97
2023-02-23T14:47:15.085Z,100278.25
2023-02-23T14:49:45.800Z,100279.84
2023-02-23T14:52:21.185Z,100280.36
2023-02-23T14:54:49.341Z,100282.29
2023-02-23T14:57:20.315Z,100284.23
2023-02-23T15:00:15.287Z,100281.71
2023-02-23T15:02:59.501Z,100279.33
2023-02-23T15:05:33.464Z,100278.97
2023-02-23T15:08:07.302Z,100279.30
2023-02-23T15:10:49.064Z,100274.13
2023-02-23T15:16:08.059Z,100267.77
2023-02-23T15:18:40.662Z,100266.36
2023-02-23T15:21:16.849Z,100261.53
2023-02-23T15:23:46.769Z,100266.81
2023-02-23T15:26:24.355Z,100265.94
2023-02-23T15:28:53.156Z,100267.08
2023-02-23T15:31:22.513Z,100267.02
2023-02-23T15:33:52.157Z,100265.63
2023-02-23T15:36:35.066Z,100266.97
2023-02-23T15:39:12.391Z,100259.20
2023-02-23T15:41:45.753Z,100260.70
2023-02-23T15:44:19.359Z,100256.34
2023-02-23T15:46:58.129Z,100246.37
2023-02-23T15:49:32.516Z,100243.21
2023-02-23T15:54:57.181Z,100252.54
2023-02-23T15:57:44.513Z,100252.52
2023-02-23T16:00:27.448Z,100251.54
2023-02-23T16:02:57.131Z,100254.34
2023-02-23T16:05:30.362Z,100253.47
2023-02-23T16:08:05.425Z,100256.88
2023-02-23T16:10:42.248Z,100268.52
2023-02-23T16:13:13.442Z,100266.15
2023-02-23T16:15:43.037Z,100260.30
2023-02-23T16:18:23.353Z,100261.34
2023-02-23T16:20:56.246Z,100262.19
2023-02-23T16:23:35.663Z,100263.70
2023-02-23T16:26:10.922Z,100265.38
2023-02-23T16:28:44.901Z,100257.44
2023-02-23T16:31:14.398Z,100252.42
2023-02-23T16:33:44.569Z,100252.39
2023-02-23T16:36:16.150Z,100252.53
2023-02-23T16:39:07.807Z,100249.78
2023-02-23T16:41:37.101Z,100244.27
2023-02-23T16:44:11.588Z,100239.62
2023-02-23T16:47:09.833Z,100241.11
2023-02-23T16:49:39.094Z,100240.08
2023-02-23T16:52:15.582Z,100240.58
2023-02-23T16:54:48.757Z,100237.30
2023-02-23T16:57:30.898Z,100232.10
2023-02-23T17:00:00.569Z,100237.85
2023-02-23T17:02:29.331Z,100236.66
2023-02-23T17:04:59.098Z,100230.81
2023-02-23T17:07:33.510Z,100229.04
2023-02-23T17:10:01.811Z,100233.66
2023-02-23T17:12:36.010Z,100227.13
2023-02-23T17:15:04.530Z,100220.58
2023-02-23T17:17:33.167Z,100224.36
2023-02-23T17:20:01.299Z,100229.06
2023-02-23T17:22:30.236Z,100222.25
2023-02-23T17:24:58.606Z,100216.02
2023-02-23T17:27:26.790Z,100215.09
2023-02-23T17:29:54.991Z,100210.52
2023-02-23T17:32:24.503Z,100209.88
2023-02-23T17:34:54.630Z,100212.40
2023-02-23T17:37:23.555Z,100205.81
2023-02-23T17:39:54.170Z,100208.13
2023-02-23T17:42:24.616Z,100202.92
2023-02-23T17:44:53.573Z,100199.50
2023-02-23T17:47:21.940Z,100200.07
2023-02-23T17:49:50.048Z,100205.38
2023-02-23T17:52:19.746Z,100203.98
2023-02-23T17:54:48.126Z,100200.89
2023-02-23T17:57:16.777Z,100199.86
2023-02-23T17:59:44.837Z,100198.84
2023-02-23T18:02:18.275Z,100206.91
2023-02-23T18:04:47.796Z,100206.55
2023-02-23T18:07:16.451Z,100202.55
2023-02-23T18:09:45.227Z,100202.36
2023-02-23T18:12:14.200Z,100201.67
2023-02-23T18:14:43.093Z,100199.06
2023-02-23T18:17:11.618Z,100195.63
2023-02-23T18:19:41.740Z,100188.55
2023-02-23T18:22:10.387Z,100187.11
2023-02-23T18:24:38.578Z,100177.59
2023-02-23T18:27:06.688Z,100172.00
2023-02-23T18:29:35.426Z,100169.36
2023-02-23T18:32:04.535Z,100170.80
2023-02-23T18:34:32.987Z,100176.38
2023-02-23T18:37:02.520Z,100173.88
2023-02-23T18:39:32.665Z,100168.88
2023-02-23T18:42:01.453Z,100164.70
2023-02-23T18:44:30.279Z,100158.29
2023-02-23T18:46:58.813Z,100159.23
2023-02-23T18:49:29.390Z,100153.68
2023-02-23T18:52:01.745Z,100154.70
2023-02-23T18:54:30.267Z,100152.28
2023-02-23T18:56:58.468Z,100150.70
2023-02-23T18:59:27.021Z,100150.45
2023-02-23T19:01:55.526Z,100147.83
2023-02-23T19:04:25.047Z,100145.31
2023-02-23T19:06:54.889Z,100141.30
2023-02-23T19:09:27.520Z,100143.14
2023-02-23T19:11:56.005Z,100138.30
2023-02-23T19:14:46.438Z,100134.80
2023-02-23T19:17:15.932Z,100139.75
2023-02-23T19:19:44.081Z,100138.18
2023-02-23T19:22:12.204Z,100135.61
2023-02-23T19:24:40.974Z,100135.23
2023-02-23T19:27:10.231Z,100124.80
2023-02-23T19:29:40.100Z,100117.23
2023-02-23T19:32:09.349Z,100111.02
2023-02-23T19:34:40.112Z,100107.23
2023-02-23T19:37:09.281Z,100108.23
2023-02-23T19:39:39.988Z,100105.93
2023-02-23T19:42:09.298Z,100112.15
2023-02-23T19:44:38.865Z,100113.16
2023-02-23T19:47:07.157Z,100105.91
2023-02-23T19:49:37.513Z,100102.12
2023-02-23T19:52:05.585Z,100099.02
2023-02-23T19:54:41.951Z,100093.30
2023-02-23T19:57:10.552Z,100092.94
2023-02-23T19:59:38.897Z,100083.48
2023-02-23T20:02:06.984Z,100076.27
2023-02-23T20:04:36.108Z,100076.40
2023-02-23T20:07:04.479Z,100067.66
2023-02-23T20:09:33.107Z,100065.39
2023-02-23T20:12:07.118Z,100063.55
2023-02-23T20:14:39.039Z,100058.73
2023-02-23T20:17:09.222Z,100062.33
2023-02-23T20:19:38.308Z,100065.70
2023-02-23T20:22:09.025Z,100066.05
2023-02-23T20:24:40.556Z,100063.79
2023-02-23T20:27:09.006Z,100062.80
2023-02-23T20:29:37.655Z,100056.52
2023-02-23T20:32:06.016Z,100048.45
2023-02-23T20:34:35.774Z,100048.94
2023-02-23T20:37:04.492Z,100047.16
2023-02-23T20:39:33.527Z,100043.87
2023-02-23T20:42:01.697Z,100032.91
2023-02-23T20:44:31.408Z,100029.66
2023-02-23T20:47:01.482Z,100021.44
2023-02-23T20:49:30.890Z,100020.23
2023-02-23T20:51:58.955Z,100017.86
2023-02-23T20:54:27.701Z,100015.50
2023-02-23T20:57:07.688Z,100017.22
2023-02-23T20:59:36.621Z,100010.53
2023-02-23T21:02:05.839Z,100009.83
2023-02-23T21:04:38.326Z,100010.61
2023-02-23T21:07:06.964Z,100009.20
2023-02-23T21:09:36.785Z,100007.48
2023-02-23T21:12:04.944Z,99999.00
2023-02-23T21:14:39.013Z,100001.84
2023-02-23T21:17:07.075Z,100003.88
2023-02-23T21:19:36.541Z,100002.06
2023-02-23T21:22:04.991Z,100000.11
2023-02-23T21:24:34.923Z,99997.04
2023-02-23T21:27:05.424Z,99994.96
2023-02-23T21:29:34.347Z,99988.63
2023-02-23T21:32:02.456Z,99988.14
2023-02-23T21:34:30.994Z,99984.73
2023-02-23T21:37:09.881Z,99982.18
2023-02-23T21:39:38.724Z,99981.15
2023-02-23T21:42:07.647Z,99978.88
2023-02-23T21:44:36.134Z,99977.81
2023-02-23T21:47:07.330Z,99971.48
2023-02-23T21:49:38.666Z,99967.52
2023-02-23T21:52:08.592Z,99964.90
2023-02-23T21:54:36.638Z,99955.20
2023-02-23T21:57:05.652Z,99956.69
2023-02-23T21:59:35.736Z,99953.25
2023-02-23T22:02:04.247Z,99948.56
2023-02-23T22:04:35.770Z,99953.90
2023-02-23T22:07:04.698Z,99951.89
2023-02-23T22:09:33.013Z,99954.15
2023-02-23T22:12:01.116Z,99951.10
2023-02-23T22:14:30.731Z,99947.04
2023-02-23T22:16:59.458Z,99942.60
2023-02-23T22:19:27.494Z,99932.51
2023-02-23T22:21:56.032Z,99928.90
2023-02-23T22:24:24.800Z,99925.27
2023-02-23T22:26:56.794Z,99917.69
2023-02-23T22:29:25.861Z,99915.79
2023-02-23T22:31:54.282Z,99913.60
2023-02-23T22:34:22.984Z,99912.42
2023-02-23T22:36:54.071Z,99909.47
2023-02-23T22:39:22.161Z,99907.12
2023-02-23T22:41:50.661Z,99905.95
2023-02-23T22:44:21.437Z,99900.99
2023-02-23T22:46:49.652Z,99897.45
2023-02-23T22:49:20.283Z,99895.61
2023-02-23T22:51:48.715Z,99895.27
2023-02-23T22:54:17.601Z,99892.38
2023-02-23T22:56:47.077Z,99888.27
2023-02-23T22:59:17.785Z,99884.98
2023-02-23T23:01:49.062Z,99874.36
2023-02-23T23:04:19.600Z,99877.13
2023-02-23T23:06:47.813Z,99872.18
2023-02-23T23:09:21.282Z,99873.38
2023-02-23T23:11:51.400Z,99867.59
2023-02-23T23:14:25.111Z,99867.36
2023-02-23T23:16:54.881Z,99859.15
2023-02-23T23:19:25.848Z,99851.05
2023-02-23T23:21:55.448Z,99846.41
2023-02-23T23:24:27.355Z,99841.98
2023-02-23T23:27:00.272Z,99839.48
2023-02-23T23:29:30.868Z,99839.67
2023-02-23T23:31:59.167Z,99837.60
2023-02-23T23:34:27.701Z,99835.70
2023-02-23T23:36:57.865Z,99832.63
2023-02-23T23:39:26.462Z,99825.73
2023-02-23T23:41:54.717Z,99824.72
2023-02-23T23:44:24.183Z,99818.73
2023-02-23T23:46:53.031Z,99816.84
2023-02-23T23:49:25.820Z,99808.10
2023-02-23T23:51:58.055Z,99802.86
2023-02-23T23:54:31.137Z,99797.73
2023-02-23T23:57:03.723Z,99793.99
2023-02-23T23:59:33.530Z,99786.80
